Time;durP1;ratioP1;P1;durP2;ratioP2;P2;SDS_P1;SDS_P2;PMS_P1;PMS_P2;Temp;Humidity;BMP_temperature;BMP_pressure;BME280_temperature;BME280_humidity;BME280_pressure;Samples;Min_cycle;Max_cycle;Signal;HPM_P1;HPM_P2
2022/01/29 00:02:22;;;;;;;55.90;32.13;;;;;;;5.37;90.61;102786.91;5052129;28;20104;-73
2022/01/29 00:04:47;;;;;;;54.63;31.13;;;;;;;5.43;90.41;102775.59;5054629;28;20378;-72
2022/01/29 00:07:14;;;;;;;53.50;31.50;;;;;;;5.49;90.58;102775.00;5054535;28;20471;-73
2022/01/29 00:09:40;;;;;;;59.75;31.45;;;;;;;5.44;90.12;102765.72;5053163;28;20062;-72
2022/01/29 00:12:05;;;;;;;50.83;31.30;;;;;;;5.48;90.26;102767.97;5054182;28;20370;-73
2022/01/29 00:14:31;;;;;;;51.40;32.83;;;;;;;5.45;90.72;102752.13;5054550;28;20031;-73
2022/01/29 00:16:56;;;;;;;55.03;32.95;;;;;;;5.45;90.54;102752.13;5054373;28;20029;-73
2022/01/29 00:19:21;;;;;;;54.80;32.30;;;;;;;5.53;89.83;102742.53;5052460;28;20032;-71
2022/01/29 00:21:47;;;;;;;56.15;31.92;;;;;;;5.45;90.71;102746.78;5052942;28;20029;-73
2022/01/29 00:24:12;;;;;;;64.82;33.85;;;;;;;5.44;91.00;102734.31;5053727;28;20031;-72
2022/01/29 00:26:37;;;;;;;55.25;30.95;;;;;;;5.49;90.12;102736.56;5054431;28;20033;-72
2022/01/29 00:29:09;;;;;;;54.00;32.17;;;;;;;5.48;90.49;102738.44;5054129;28;20115;-73
2022/01/29 00:31:35;;;;;;;54.58;30.85;;;;;;;5.52;90.44;102732.75;5054062;28;20033;-73
2022/01/29 00:34:00;;;;;;;57.72;31.80;;;;;;;5.51;90.72;102739.97;5053975;28;20496;-72
2022/01/29 00:36:25;;;;;;;56.67;32.35;;;;;;;5.55;90.66;102727.09;5053982;28;20056;-72
2022/01/29 00:38:51;;;;;;;55.78;32.38;;;;;;;5.49;90.65;102721.31;5053598;28;20025;-73
2022/01/29 00:41:16;;;;;;;55.38;31.75;;;;;;;5.54;90.80;102720.03;5052219;28;20036;-73
2022/01/29 00:43:41;;;;;;;55.17;32.53;;;;;;;5.49;90.47;102721.31;5053555;28;20032;-71
2022/01/29 00:46:06;;;;;;;55.20;31.92;;;;;;;5.54;90.53;102722.72;5053519;28;20025;-73
2022/01/29 00:48:32;;;;;;;52.50;31.33;;;;;;;5.53;90.56;102724.56;5053585;28;20025;-72
2022/01/29 00:51:00;;;;;;;60.78;33.05;;;;;;;5.54;90.60;102725.41;5067090;28;20036;-73
2022/01/29 00:53:25;;;;;;;53.75;31.92;;;;;;;5.53;90.98;102718.34;5073166;28;20598;-72
2022/01/29 00:55:50;;;;;;;55.50;33.42;;;;;;;5.56;90.94;102710.00;5106200;28;20131;-71
2022/01/29 00:58:15;;;;;;;52.63;33.03;;;;;;;5.55;91.11;102709.13;5072956;28;20102;-72
2022/01/29 01:00:41;;;;;;;55.03;32.63;;;;;;;5.57;90.46;102706.31;5070183;28;20055;-73
2022/01/29 01:03:06;;;;;;;56.80;32.35;;;;;;;5.57;90.81;102701.81;5073201;28;20407;-73
2022/01/29 01:05:31;;;;;;;56.65;30.90;;;;;;;5.59;91.20;102701.66;5073359;28;20119;-73
2022/01/29 01:07:58;;;;;;;52.15;31.23;;;;;;;5.58;90.80;102694.59;5072999;28;20498;-73
2022/01/29 01:10:23;;;;;;;52.42;30.75;;;;;;;5.63;90.86;102694.97;5073026;28;20036;-72
2022/01/29 01:12:48;;;;;;;59.50;33.33;;;;;;;5.56;91.26;102689.34;5073197;28;20032;-72
2022/01/29 01:15:13;;;;;;;54.65;31.85;;;;;;;5.56;90.92;102683.16;5072686;28;20426;-72
2022/01/29 01:17:39;;;;;;;51.40;31.70;;;;;;;5.58;91.15;102681.16;5073146;28;20043;-71
2022/01/29 01:20:05;;;;;;;51.08;31.10;;;;;;;5.59;91.54;102664.06;5073070;28;20028;-72
2022/01/29 01:22:31;;;;;;;53.50;31.67;;;;;;;5.58;91.33;102665.03;5072799;28;20028;-72
2022/01/29 01:24:56;;;;;;;50.15;31.27;;;;;;;5.58;91.83;102656.97;5073299;28;20036;-71
2022/01/29 01:27:21;;;;;;;58.15;33.17;;;;;;;5.54;91.72;102643.03;5071440;28;20458;-72
2022/01/29 01:29:47;;;;;;;54.33;31.65;;;;;;;5.55;91.91;102639.31;5072944;28;20024;-72
2022/01/29 01:32:12;;;;;;;56.70;33.17;;;;;;;5.56;91.49;102637.50;5105269;28;20033;-72
2022/01/29 01:34:47;;;;;;;54.38;31.88;;;;;;;5.55;92.25;102633.09;5072885;28;20067;-73
2022/01/29 01:37:20;;;;;;;55.95;33.35;;;;;;;5.50;92.10;102620.13;5072584;28;20029;-71
2022/01/29 01:39:45;;;;;;;51.95;33.10;;;;;;;5.49;92.42;102623.78;5072687;28;20383;-72
2022/01/29 01:42:10;;;;;;;53.20;31.95;;;;;;;5.49;92.78;102618.44;5072526;28;20081;-72
2022/01/29 01:44:46;;;;;;;48.33;29.50;;;;;;;5.46;92.42;102618.72;5072684;28;20039;-72
2022/01/29 01:47:14;;;;;;;51.30;32.08;;;;;;;5.52;92.96;102638.78;5105018;28;20031;-72
2022/01/29 01:49:39;;;;;;;57.00;32.45;;;;;;;5.45;93.13;102631.31;5068395;28;20021;-72
2022/01/29 01:52:08;;;;;;;50.00;32.42;;;;;;;5.44;93.22;102621.56;5051379;28;20036;-73
2022/01/29 01:54:34;;;;;;;49.58;30.38;;;;;;;5.45;93.79;102617.03;5052609;28;20128;-71
2022/01/29 01:57:00;;;;;;;51.67;31.00;;;;;;;5.46;93.78;102614.19;5052233;28;20488;-71
2022/01/29 01:59:26;;;;;;;53.80;32.20;;;;;;;5.44;94.03;102607.28;5052249;28;20045;-72
2022/01/29 02:01:51;;;;;;;50.40;31.05;;;;;;;5.42;94.54;102610.13;5050161;28;20082;-71
2022/01/29 02:04:16;;;;;;;50.65;29.08;;;;;;;5.44;94.38;102615.34;5052306;28;20025;-72
2022/01/29 02:06:43;;;;;;;48.97;29.60;;;;;;;5.40;94.76;102600.53;5052302;28;20032;-71
2022/01/29 02:09:08;;;;;;;49.63;30.75;;;;;;;5.37;94.84;102587.41;5052300;28;20037;-71
2022/01/29 02:11:37;;;;;;;47.10;30.27;;;;;;;5.39;94.42;102597.00;5050451;28;20033;-71
2022/01/29 02:14:03;;;;;;;47.47;31.02;;;;;;;5.39;94.67;102580.91;5052618;28;20036;-72
2022/01/29 02:16:30;;;;;;;44.70;29.08;;;;;;;5.38;94.66;102573.81;5051865;28;20408;-71
2022/01/29 02:18:56;;;;;;;47.72;28.70;;;;;;;5.41;95.04;102573.53;5052300;28;20029;-71
2022/01/29 02:21:25;;;;;;;47.53;29.55;;;;;;;5.38;95.26;102573.81;5051730;28;20040;-71
2022/01/29 02:23:50;;;;;;;43.17;27.30;;;;;;;5.33;95.08;102565.38;5052215;28;20483;-71
2022/01/29 02:26:16;;;;;;;42.67;28.60;;;;;;;5.38;95.05;102570.31;5051807;28;20037;-71
2022/01/29 02:28:41;;;;;;;45.08;28.67;;;;;;;5.38;95.36;102565.78;5050988;28;20021;-72
2022/01/29 02:31:06;;;;;;;43.67;28.52;;;;;;;5.42;94.91;102566.31;5051945;28;20064;-71
2022/01/29 02:33:35;;;;;;;49.85;28.33;;;;;;;5.38;95.22;102571.13;5050720;28;20082;-71
2022/01/29 02:36:00;;;;;;;45.33;28.35;;;;;;;5.36;95.04;102564.22;5052211;28;20050;-72
2022/01/29 02:38:26;;;;;;;42.38;27.45;;;;;;;5.35;95.09;102560.69;5051935;28;20040;-71
2022/01/29 02:40:56;;;;;;;39.55;27.42;;;;;;;5.34;95.55;102550.94;5050677;28;20075;-72
2022/01/29 02:43:30;;;;;;;41.72;28.25;;;;;;;5.41;96.09;102553.91;5051828;28;20111;-71
2022/01/29 02:45:57;;;;;;;46.08;28.25;;;;;;;5.39;95.98;102559.41;5052052;28;20108;-71
2022/01/29 02:48:23;;;;;;;43.50;28.02;;;;;;;5.44;95.88;102561.66;5050488;28;20495;-71
2022/01/29 02:50:50;;;;;;;46.38;28.13;;;;;;;5.42;95.83;102551.06;5065549;28;20454;-71
2022/01/29 02:53:15;;;;;;;43.83;29.30;;;;;;;5.40;95.84;102550.34;5104342;28;20031;-71
2022/01/29 02:55:41;;;;;;;41.15;27.88;;;;;;;5.40;95.70;102547.66;5104661;28;20033;-72
2022/01/29 02:58:07;;;;;;;41.72;27.15;;;;;;;5.38;96.30;102546.97;5071901;28;20060;-71
2022/01/29 03:00:33;;;;;;;45.50;28.45;;;;;;;5.41;96.86;102552.03;5069654;28;20036;-71
2022/01/29 03:02:58;;;;;;;43.83;27.98;;;;;;;5.42;96.46;102534.94;5072105;28;20036;-71
2022/01/29 03:05:24;;;;;;;43.20;27.17;;;;;;;5.41;96.16;102535.94;5071796;28;20032;-71
2022/01/29 03:07:49;;;;;;;40.97;27.80;;;;;;;5.44;96.67;102546.38;5070638;28;20025;-71
2022/01/29 03:10:15;;;;;;;44.95;29.05;;;;;;;5.42;97.00;102536.78;5071701;28;20032;-72
2022/01/29 03:12:41;;;;;;;47.97;29.13;;;;;;;5.46;96.49;102533.63;5071906;28;20032;-70
2022/01/29 03:15:08;;;;;;;45.05;28.48;;;;;;;5.42;96.65;102532.28;5071862;28;20624;-72
2022/01/29 03:17:33;;;;;;;48.75;29.90;;;;;;;5.49;96.65;102535.19;5070299;28;20113;-71
2022/01/29 03:19:59;;;;;;;43.38;28.88;;;;;;;5.46;96.97;102528.25;5071720;28;20036;-70
2022/01/29 03:22:24;;;;;;;43.72;28.90;;;;;;;5.43;96.75;102519.69;5071291;28;20029;-72
2022/01/29 03:24:49;;;;;;;45.42;28.65;;;;;;;5.46;96.68;102520.22;5074635;28;20111;-71
2022/01/29 03:27:14;;;;;;;47.20;28.40;;;;;;;5.44;97.02;102516.84;5075064;28;20078;-72
2022/01/29 03:29:40;;;;;;;46.75;29.13;;;;;;;5.46;96.92;102511.31;5075163;28;20029;-71
2022/01/29 03:32:05;;;;;;;44.88;27.33;;;;;;;5.48;96.89;102504.81;5075183;28;20082;-71
2022/01/29 03:34:31;;;;;;;46.42;29.08;;;;;;;5.43;97.11;102508.94;5074643;28;20029;-72
2022/01/29 03:36:56;;;;;;;45.65;29.35;;;;;;;5.42;97.59;102501.88;5107660;28;20028;-72
2022/01/29 03:39:24;;;;;;;47.75;28.88;;;;;;;5.46;97.20;102500.59;5074719;28;20028;-72
2022/01/29 03:41:50;;;;;;;44.80;27.80;;;;;;;5.50;96.99;102499.28;5075053;28;20033;-71
2022/01/29 03:44:15;;;;;;;46.28;28.15;;;;;;;5.50;97.13;102494.75;5074908;28;20085;-72
2022/01/29 03:46:41;;;;;;;47.53;29.63;;;;;;;5.47;97.25;102488.84;5107470;28;20025;-72
2022/01/29 03:49:06;;;;;;;48.78;29.02;;;;;;;5.45;97.25;102480.94;5074816;28;20384;-72
2022/01/29 03:51:31;;;;;;;48.42;28.80;;;;;;;5.47;97.58;102480.81;5054875;28;20063;-70
2022/01/29 03:53:57;;;;;;;47.65;28.17;;;;;;;5.50;97.39;102489.38;5059057;28;20380;-72
2022/01/29 03:56:22;;;;;;;45.95;28.15;;;;;;;5.50;97.57;102481.34;5074106;28;20523;-72
2022/01/29 03:58:47;;;;;;;44.83;27.25;;;;;;;5.50;96.87;102485.88;5074521;28;20135;-71
2022/01/29 04:01:13;;;;;;;48.05;27.42;;;;;;;5.56;97.57;102479.88;5104564;28;20036;-70
2022/01/29 04:03:39;;;;;;;45.70;26.92;;;;;;;5.54;96.84;102478.34;5073905;28;20036;-71
2022/01/29 04:06:04;;;;;;;43.88;26.35;;;;;;;5.52;97.63;102466.91;5074607;28;20605;-71
2022/01/29 04:08:32;;;;;;;42.15;26.10;;;;;;;5.53;97.29;102474.00;5072685;28;20120;-72
2022/01/29 04:10:58;;;;;;;42.13;24.80;;;;;;;5.59;97.48;102476.06;5073157;28;20532;-71
2022/01/29 04:13:25;;;;;;;43.13;25.27;;;;;;;5.59;97.55;102478.75;5073921;28;20111;-72
2022/01/29 04:15:51;;;;;;;40.30;24.90;;;;;;;5.59;97.77;102479.59;5074410;28;20039;-71
2022/01/29 04:18:18;;;;;;;39.20;25.08;;;;;;;5.60;97.57;102477.72;5074355;28;20032;-71
2022/01/29 04:20:44;;;;;;;38.60;24.58;;;;;;;5.63;97.62;102469.38;5074215;28;20028;-71
2022/01/29 04:23:10;;;;;;;40.40;24.25;;;;;;;5.63;97.82;102469.38;5073959;28;20032;-71
2022/01/29 04:25:35;;;;;;;37.17;23.95;;;;;;;5.72;97.48;102467.63;5073926;28;20128;-71
2022/01/29 04:28:02;;;;;;;38.83;24.60;;;;;;;5.71;97.29;102465.91;5074151;28;20544;-72
2022/01/29 04:30:30;;;;;;;43.90;24.98;;;;;;;5.68;97.67;102459.03;5073856;28;20033;-71
2022/01/29 04:33:04;;;;;;;41.65;25.85;;;;;;;5.68;97.91;102446.44;5072733;28;20032;-71
2022/01/29 04:35:30;;;;;;;41.28;24.55;;;;;;;5.68;97.19;102438.38;5073305;28;20455;-72
2022/01/29 04:37:56;;;;;;;37.42;23.80;;;;;;;5.74;97.84;102455.72;5073951;28;20403;-71
2022/01/29 04:40:22;;;;;;;41.78;26.10;;;;;;;5.75;97.34;102449.38;5073533;28;20044;-71
2022/01/29 04:42:48;;;;;;;39.13;24.42;;;;;;;5.75;98.25;102441.31;5072752;28;20111;-72
2022/01/29 04:45:13;;;;;;;41.45;24.95;;;;;;;5.76;97.46;102442.16;5072247;28;20460;-72
2022/01/29 04:47:39;;;;;;;39.33;25.23;;;;;;;5.75;97.96;102446.69;5073558;28;20035;-71
2022/01/29 04:50:05;;;;;;;42.08;25.17;;;;;;;5.81;98.21;102446.06;5073675;28;20137;-70
2022/01/29 04:52:30;;;;;;;40.97;24.85;;;;;;;5.83;98.02;102440.53;5071194;28;20143;-71
2022/01/29 04:54:55;;;;;;;43.75;25.77;;;;;;;5.86;98.59;102446.44;5073163;28;20116;-72
2022/01/29 04:57:21;;;;;;;43.42;25.45;;;;;;;5.87;98.29;102433.84;5073076;28;20077;-71
2022/01/29 04:59:46;;;;;;;43.55;26.60;;;;;;;5.84;98.33;102423.41;5072744;28;20502;-72
2022/01/29 05:02:11;;;;;;;40.42;25.83;;;;;;;5.86;98.64;102421.41;5071311;28;20028;-72
2022/01/29 05:04:37;;;;;;;42.33;27.48;;;;;;;5.86;98.48;102424.94;5072184;28;20372;-71
2022/01/29 05:07:02;;;;;;;45.13;27.27;;;;;;;5.86;98.88;102416.06;5106043;28;20459;-70
2022/01/29 05:09:28;;;;;;;46.40;27.17;;;;;;;5.88;99.49;102421.25;5073055;28;20070;-71
2022/01/29 05:11:54;;;;;;;44.22;27.00;;;;;;;5.89;98.89;102420.25;5073292;28;20357;-72
2022/01/29 05:14:47;;;;;;;43.72;27.27;;;;;;;5.89;99.07;102409.50;5073205;28;20060;-72
2022/01/29 05:28:02;;;;;;;46.22;28.15;;;;;;;6.06;98.92;102386.34;5072778;28;20086;-72
2022/01/29 05:30:28;;;;;;;46.45;27.80;;;;;;;6.01;98.91;102392.19;5072451;28;20422;-71
2022/01/29 05:32:53;;;;;;;48.22;29.23;;;;;;;6.02;98.93;102386.66;5072889;28;20063;-71
2022/01/29 05:35:18;;;;;;;45.60;27.77;;;;;;;6.06;99.21;102394.41;5072847;28;20086;-72
2022/01/29 05:37:45;;;;;;;50.35;29.38;;;;;;;6.03;98.99;102393.69;5070448;28;20067;-72
2022/01/29 05:40:11;;;;;;;44.60;28.30;;;;;;;6.07;99.03;102396.06;5072595;28;20028;-71
2022/01/29 05:42:36;;;;;;;46.22;28.88;;;;;;;6.09;99.11;102400.28;5072610;28;20106;-72
2022/01/29 05:45:02;;;;;;;50.22;30.25;;;;;;;6.11;99.39;102400.97;5071032;28;20055;-75
2022/01/29 05:47:28;;;;;;;48.63;29.30;;;;;;;6.09;99.08;102404.84;5069403;28;20029;-71
2022/01/29 05:49:53;;;;;;;48.03;28.95;;;;;;;6.13;99.19;102395.44;5072678;28;20028;-72
2022/01/29 05:52:18;;;;;;;50.47;29.73;;;;;;;6.13;99.48;102390.94;5073003;28;20028;-76
2022/01/29 05:54:43;;;;;;;45.03;30.77;;;;;;;6.15;98.65;102388.91;5071077;28;20028;-73
2022/01/29 05:57:09;;;;;;;50.78;30.67;;;;;;;6.15;99.19;102388.91;5067160;28;20043;-72
2022/01/29 05:59:36;;;;;;;50.13;29.27;;;;;;;6.17;98.94;102386.91;5051874;28;20503;-71
2022/01/29 06:02:02;;;;;;;52.10;29.25;;;;;;;6.21;99.19;102382.91;5050199;28;20407;-71
2022/01/29 06:04:27;;;;;;;48.03;28.40;;;;;;;6.23;99.59;102389.97;5051913;28;20021;-71
2022/01/29 06:06:52;;;;;;;47.40;30.75;;;;;;;6.22;99.35;102386.44;5084608;28;20150;-72
2022/01/29 06:09:17;;;;;;;47.97;29.65;;;;;;;6.20;99.36;102375.00;5052096;28;20479;-72
2022/01/29 06:11:43;;;;;;;47.85;30.83;;;;;;;6.25;99.81;102380.75;5052116;28;20396;-70
2022/01/29 06:14:09;;;;;;;47.15;29.50;;;;;;;6.25;99.55;102374.50;5052341;28;20163;-72
2022/01/29 06:16:35;;;;;;;47.05;30.25;;;;;;;6.23;99.51;102371.16;5052091;28;20361;-70
2022/01/29 06:19:00;;;;;;;49.72;30.10;;;;;;;6.28;99.58;102376.88;5052256;28;20031;-71
2022/01/29 06:21:25;;;;;;;52.53;32.08;;;;;;;6.27;99.58;102365.31;5052070;28;20068;-71
2022/01/29 06:23:50;;;;;;;49.05;32.25;;;;;;;6.31;99.91;102365.81;5051997;28;20036;-71
2022/01/29 06:26:16;;;;;;;50.60;31.27;;;;;;;6.36;99.40;102363.50;5051974;28;20469;-72
2022/01/29 06:28:42;;;;;;;47.45;30.90;;;;;;;6.34;99.92;102360.97;5051958;28;20033;-71
2022/01/29 06:31:09;;;;;;;52.03;32.15;;;;;;;6.39;99.48;102358.63;5051944;28;20040;-71
2022/01/29 06:33:35;;;;;;;47.05;31.92;;;;;;;6.40;99.64;102367.53;5051957;28;20468;-71
2022/01/29 06:36:00;;;;;;;51.22;31.77;;;;;;;6.40;99.65;102370.22;5051926;28;20079;-71
2022/01/29 06:38:25;;;;;;;46.25;31.55;;;;;;;6.44;99.84;102360.84;5052371;28;20033;-72
2022/01/29 06:40:51;;;;;;;48.50;31.08;;;;;;;6.42;99.76;102367.41;5051881;28;20033;-70
2022/01/29 06:43:17;;;;;;;48.55;31.38;;;;;;;6.44;99.59;102360.84;5052421;28;20440;-70
2022/01/29 06:45:44;;;;;;;43.60;30.77;;;;;;;6.43;99.98;102364.56;5050642;28;20025;-70
2022/01/29 06:48:10;;;;;;;47.67;31.08;;;;;;;6.48;99.76;102359.53;5051651;28;20475;-72
2022/01/29 06:50:36;;;;;;;44.08;30.60;;;;;;;6.46;100.00;102355.31;5051852;28;20029;-71
2022/01/29 06:53:01;;;;;;;45.67;31.50;;;;;;;6.47;100.00;102357.00;5051745;28;20430;-70
2022/01/29 06:55:27;;;;;;;46.30;31.25;;;;;;;6.52;100.00;102347.47;5051765;28;20048;-72
2022/01/29 06:57:52;;;;;;;47.30;31.15;;;;;;;6.54;99.79;102348.13;5052332;28;20086;-70
2022/01/29 07:00:18;;;;;;;43.30;30.35;;;;;;;6.55;99.64;102346.28;5055761;28;20045;-70
2022/01/29 07:02:44;;;;;;;48.55;30.90;;;;;;;6.56;99.91;102334.50;5053121;28;20035;-72
2022/01/29 07:05:10;;;;;;;45.60;30.50;;;;;;;6.59;99.39;102334.19;5055684;28;20037;-71
2022/01/29 07:07:36;;;;;;;41.53;28.65;;;;;;;6.59;99.72;102336.06;5055122;28;20430;-71
2022/01/29 07:10:02;;;;;;;44.25;30.95;;;;;;;6.61;99.70;102336.72;5087887;28;20035;-70
2022/01/29 07:12:27;;;;;;;44.90;31.25;;;;;;;6.64;100.00;102333.69;5055343;28;20032;-71
2022/01/29 07:14:52;;;;;;;41.22;29.42;;;;;;;6.63;100.00;102329.31;5087896;28;20060;-71
2022/01/29 07:17:22;;;;;;;42.67;30.05;;;;;;;6.62;100.00;102319.59;5055464;28;20116;-71
2022/01/29 07:19:47;;;;;;;42.03;30.08;;;;;;;6.69;99.96;102326.84;5055123;28;20062;-71
2022/01/29 07:22:13;;;;;;;43.33;30.60;;;;;;;6.69;99.95;102324.16;5055144;28;20508;-71
2022/01/29 07:24:38;;;;;;;44.40;29.88;;;;;;;6.68;100.00;102327.84;5087487;28;20048;-71
2022/01/29 07:27:04;;;;;;;45.45;29.80;;;;;;;6.76;99.42;102323.50;5055865;28;20067;-71
2022/01/29 07:29:30;;;;;;;42.42;29.02;;;;;;;6.78;99.83;102322.34;5054940;28;20033;-71
2022/01/29 07:31:56;;;;;;;41.88;29.77;;;;;;;6.76;100.00;102326.19;5055256;28;20029;-71
2022/01/29 07:34:22;;;;;;;45.33;30.30;;;;;;;6.77;100.00;102328.72;5055128;28;20366;-71
2022/01/29 07:36:48;;;;;;;41.42;29.58;;;;;;;6.80;100.00;102328.38;5053620;28;20071;-71
2022/01/29 07:39:13;;;;;;;39.25;26.50;;;;;;;6.88;99.60;102330.25;5055346;28;20472;-72
2022/01/29 07:41:39;;;;;;;43.22;29.15;;;;;;;6.85;99.55;102326.03;5054753;28;20102;-70
2022/01/29 07:44:04;;;;;;;37.58;27.00;;;;;;;6.92;99.98;102324.38;5087271;28;20033;-71
2022/01/29 07:46:30;;;;;;;39.15;28.48;;;;;;;6.87;100.00;102321.34;5054446;28;20051;-72
2022/01/29 07:48:56;;;;;;;40.53;30.58;;;;;;;6.88;100.00;102314.97;5054842;28;20048;-72
2022/01/29 07:51:21;;;;;;;40.10;29.00;;;;;;;6.94;100.00;102323.38;5054912;28;20033;-72
2022/01/29 07:53:46;;;;;;;37.15;28.33;;;;;;;6.95;100.00;102317.00;5054641;28;20477;-73
2022/01/29 07:56:11;;;;;;;39.33;29.65;;;;;;;6.96;100.00;102310.59;5054469;28;20029;-72
2022/01/29 07:58:36;;;;;;;40.20;28.55;;;;;;;6.99;100.00;102316.50;5053957;28;20056;-71
2022/01/29 08:01:03;;;;;;;38.28;27.85;;;;;;;6.99;100.00;102311.13;5051895;28;20040;-73
2022/01/29 08:03:28;;;;;;;38.28;27.73;;;;;;;7.02;100.00;102315.31;5054959;28;20029;-72
2022/01/29 08:05:56;;;;;;;36.97;27.77;;;;;;;7.06;100.00;102300.50;5054578;28;20107;-71
2022/01/29 08:08:21;;;;;;;39.50;29.23;;;;;;;7.05;100.00;102304.19;5054794;28;20499;-70
2022/01/29 08:10:47;;;;;;;38.25;28.20;;;;;;;7.10;100.00;102301.88;5053781;28;20061;-72
2022/01/29 08:13:12;;;;;;;38.35;28.33;;;;;;;7.13;100.00;102296.16;5054407;28;20029;-70
2022/01/29 08:15:37;;;;;;;40.72;30.13;;;;;;;7.15;100.00;102298.69;5054388;28;20025;-70
2022/01/29 08:18:03;;;;;;;37.10;28.08;;;;;;;7.18;100.00;102303.72;5054318;28;20056;-71
2022/01/29 08:20:29;;;;;;;36.88;28.13;;;;;;;7.17;100.00;102297.53;5054247;28;20051;-72
2022/01/29 08:22:54;;;;;;;37.72;28.73;;;;;;;7.25;100.00;102285.91;5054062;28;20025;-70
2022/01/29 08:25:19;;;;;;;33.60;26.45;;;;;;;7.29;100.00;102287.22;5054197;28;20028;-72
2022/01/29 08:27:44;;;;;;;37.15;29.48;;;;;;;7.31;100.00;102284.38;5053897;28;20031;-72
2022/01/29 08:30:10;;;;;;;37.28;28.45;;;;;;;7.32;100.00;102280.69;5054053;28;20024;-72
2022/01/29 08:32:41;;;;;;;35.38;27.15;;;;;;;7.33;100.00;102282.38;5053899;28;20025;-71
2022/01/29 08:35:08;;;;;;;35.53;27.35;;;;;;;7.32;100.00;102278.00;5053989;28;20132;-71
2022/01/29 08:37:33;;;;;;;37.85;28.55;;;;;;;7.35;99.95;102283.91;5053275;28;20037;-71
2022/01/29 08:39:59;;;;;;;34.88;27.20;;;;;;;7.38;100.00;102271.94;5053085;28;20162;-71
2022/01/29 08:42:24;;;;;;;35.72;28.25;;;;;;;7.40;100.00;102270.75;5053959;28;20033;-72
2022/01/29 08:44:49;;;;;;;34.00;27.67;;;;;;;7.41;99.81;102261.69;5054013;28;20024;-71
2022/01/29 08:47:15;;;;;;;35.03;26.75;;;;;;;7.52;99.54;102263.19;5053889;28;20183;-72
2022/01/29 08:49:40;;;;;;;32.95;23.17;;;;;;;7.56;99.21;102261.84;5053472;28;20029;-73
2022/01/29 08:52:05;;;;;;;35.40;26.58;;;;;;;7.50;100.00;102259.78;5053709;28;20162;-71
2022/01/29 08:54:31;;;;;;;34.40;26.27;;;;;;;7.51;99.51;102261.47;5085518;28;20119;-72
2022/01/29 08:56:56;;;;;;;34.40;26.75;;;;;;;7.56;99.60;102264.53;5053076;28;20124;-70
2022/01/29 08:59:21;;;;;;;34.63;26.95;;;;;;;7.60;99.83;102265.84;5053373;28;20053;-71
2022/01/29 09:01:46;;;;;;;33.45;26.50;;;;;;;7.66;99.23;102263.50;5083080;28;20060;-70
2022/01/29 09:04:12;;;;;;;32.40;26.02;;;;;;;7.62;99.30;102268.38;5053502;28;20032;-72
2022/01/29 09:06:37;;;;;;;31.23;26.10;;;;;;;7.67;99.59;102249.00;5053149;28;20107;-72
2022/01/29 09:09:03;;;;;;;31.70;24.80;;;;;;;7.63;99.74;102254.72;5053381;28;20029;-70
2022/01/29 09:11:28;;;;;;;31.48;24.52;;;;;;;7.74;98.76;102247.31;5052074;28;20452;-71
2022/01/29 09:13:53;;;;;;;31.85;25.30;;;;;;;7.72;98.98;102243.94;5053045;28;20159;-71
2022/01/29 09:16:18;;;;;;;33.47;25.23;;;;;;;7.71;99.13;102236.88;5051969;28;20493;-72
2022/01/29 09:18:44;;;;;;;33.08;24.45;;;;;;;7.75;99.50;102247.13;5052973;28;20033;-71
2022/01/29 09:21:09;;;;;;;31.17;24.27;;;;;;;7.81;97.99;102246.44;5052301;28;20029;-71
2022/01/29 09:23:35;;;;;;;30.40;24.88;;;;;;;7.77;98.91;102242.41;5052870;28;20060;-72
2022/01/29 09:26:03;;;;;;;29.52;22.00;;;;;;;7.83;98.48;102240.88;5053078;28;20065;-70
2022/01/29 09:28:29;;;;;;;28.05;21.83;;;;;;;7.88;98.78;102235.84;5052990;28;20472;-72
2022/01/29 09:30:54;;;;;;;27.98;21.65;;;;;;;7.90;98.67;102243.75;5052662;28;20044;-72
2022/01/29 09:33:19;;;;;;;28.13;22.33;;;;;;;7.92;98.17;102242.53;5053177;28;20041;-71
2022/01/29 09:35:45;;;;;;;27.42;21.75;;;;;;;7.97;98.07;102245.56;5052673;28;20028;-70
2022/01/29 09:38:12;;;;;;;26.50;21.98;;;;;;;7.96;98.49;102238.50;5052913;28;20029;-73
2022/01/29 09:40:40;;;;;;;27.55;22.23;;;;;;;7.94;98.87;102250.44;5052534;28;20124;-71
2022/01/29 09:43:10;;;;;;;28.08;22.75;;;;;;;7.97;98.68;102245.56;5085019;28;20029;-70
2022/01/29 09:45:37;;;;;;;26.50;20.90;;;;;;;8.05;99.10;102251.97;5052566;28;20024;-72
2022/01/29 09:48:03;;;;;;;27.48;21.63;;;;;;;8.06;98.33;102238.31;5052710;28;20043;-72
2022/01/29 09:50:34;;;;;;;31.17;22.52;;;;;;;8.07;98.91;102241.81;5052498;28;20186;-72
2022/01/29 09:53:00;;;;;;;26.10;21.73;;;;;;;8.11;98.22;102238.59;5052403;28;20108;-71
2022/01/29 09:55:26;;;;;;;26.35;20.98;;;;;;;8.13;97.58;102238.44;5052295;28;20110;-70
2022/01/29 09:57:56;;;;;;;27.73;22.05;;;;;;;8.15;97.24;102248.03;5052428;28;20036;-71
2022/01/29 10:00:23;;;;;;;25.10;20.52;;;;;;;8.18;97.82;102252.22;5052209;28;20045;-70
2022/01/29 10:03:14;;;;;;;30.02;23.35;;;;;;;8.25;97.42;102242.41;5082556;28;20178;-72
2022/01/29 10:05:47;;;;;;;25.88;21.58;;;;;;;8.27;97.25;102243.09;5052333;28;20056;-72
2022/01/29 10:08:13;;;;;;;24.40;19.85;;;;;;;8.28;97.50;102247.47;5051101;28;20025;-71
2022/01/29 10:10:41;;;;;;;26.67;22.27;;;;;;;8.36;96.77;102240.34;5052195;28;20032;-71
2022/01/29 10:13:32;;;;;;;26.23;22.23;;;;;;;8.31;97.57;102241.72;5052363;28;20089;-71
2022/01/29 10:16:30;;;;;;;24.83;21.23;;;;;;;8.42;96.66;102236.94;5050843;28;20025;-71
2022/01/29 10:19:04;;;;;;;24.55;21.48;;;;;;;8.42;96.93;102236.94;5051575;28;20037;-72
2022/01/29 10:21:32;;;;;;;26.50;21.83;;;;;;;8.44;96.64;102229.53;5052252;28;20021;-71
2022/01/29 10:24:09;;;;;;;25.23;21.42;;;;;;;8.43;97.06;102233.25;5052102;28;20068;-70
2022/01/29 10:26:39;;;;;;;23.52;20.25;;;;;;;8.49;96.48;102217.22;5050999;28;20479;-72
2022/01/29 10:29:07;;;;;;;24.50;21.50;;;;;;;8.50;96.45;102223.47;5052358;28;20036;-71
2022/01/29 10:31:43;;;;;;;29.08;20.13;;;;;;;8.62;95.92;102218.47;5052196;28;20039;-71
2022/01/29 10:34:18;;;;;;;33.83;20.48;;;;;;;8.63;95.17;102207.50;5056258;28;20036;-72
2022/01/29 10:36:44;;;;;;;24.77;20.35;;;;;;;8.62;95.87;102199.59;5056044;28;20083;-71
2022/01/29 10:39:09;;;;;;;23.05;18.98;;;;;;;8.65;95.41;102202.78;5056241;28;20028;-72
2022/01/29 10:41:34;;;;;;;23.45;17.95;;;;;;;8.67;95.00;102197.22;5056082;28;20475;-72
2022/01/29 10:44:10;;;;;;;25.95;18.70;;;;;;;8.67;95.14;102202.59;5055898;28;20021;-71
2022/01/29 10:46:43;;;;;;;21.90;17.38;;;;;;;8.72;94.56;102193.97;5056141;28;20403;-70
2022/01/29 10:49:25;;;;;;;20.55;16.33;;;;;;;8.78;94.07;102190.56;5056020;28;20060;-71
2022/01/29 10:52:01;;;;;;;18.73;16.45;;;;;;;8.79;94.12;102178.75;5055570;28;20595;-72
2022/01/29 10:54:27;;;;;;;20.70;14.60;;;;;;;8.83;93.22;102180.91;5055621;28;20044;-72
2022/01/29 10:57:14;;;;;;;19.27;14.65;;;;;;;8.89;93.49;102189.28;5054374;28;20032;-71
2022/01/29 10:59:48;;;;;;;18.83;14.13;;;;;;;8.92;93.51;102178.13;5055105;28;20496;-70
2022/01/29 11:02:14;;;;;;;18.27;14.52;;;;;;;8.90;93.17;102178.31;5051943;28;20029;-71
2022/01/29 11:04:40;;;;;;;16.05;13.23;;;;;;;8.91;92.93;102181.84;5055806;28;20394;-72
2022/01/29 11:07:13;;;;;;;15.98;13.82;;;;;;;8.97;92.33;102170.34;5055735;28;20032;-71
2022/01/29 11:09:43;;;;;;;16.48;12.20;;;;;;;8.98;92.06;102172.84;5055503;28;20380;-71
2022/01/29 11:12:11;;;;;;;14.63;11.45;;;;;;;9.04;91.52;102153.22;5055409;28;20036;-72
2022/01/29 11:14:37;;;;;;;13.57;10.43;;;;;;;9.11;91.10;102164.13;5055597;28;20082;-71
2022/01/29 11:17:03;;;;;;;12.98;10.05;;;;;;;9.11;91.67;102160.59;5053952;28;20086;-72
2022/01/29 11:19:30;;;;;;;12.98;10.88;;;;;;;9.13;91.45;102164.75;5087823;28;20426;-70
2022/01/29 11:21:59;;;;;;;13.05;9.80;;;;;;;9.15;91.09;102161.88;5055431;28;20358;-72
2022/01/29 11:24:27;;;;;;;13.25;8.55;;;;;;;9.20;90.30;102152.22;5054138;28;20057;-70
2022/01/29 11:26:52;;;;;;;13.15;8.93;;;;;;;9.17;90.75;102152.59;5055086;28;20029;-72